Time,TemperatureF,DewpointF,PressureIn,WindDirection,WindDirectionDegrees,WindSpeedMPH,WindSpeedGustMPH,Humidity,HourlyPrecipIn,Conditions,Clouds,dailyrainin,SoftwareType,DateUTC
2015-03-06 00:00:00,5.8,3.0,30.52,NW,324,0.0,0.0,88,0.00,,,0.00,Wunderground v.1.15,2015-03-06 05:00:00,
2015-03-06 00:10:00,5.7,2.9,30.52,NW,325,0.0,0.0,88,0.00,,,0.00,Wunderground v.1.15,2015-03-06 05:10:00,
2015-03-06 00:15:00,5.6,2.8,30.51,NW,324,0.0,0.0,88,0.00,,,0.00,Wunderground v.1.15,2015-03-06 05:15:00,
2015-03-06 00:25:00,4.8,1.8,30.51,NW,325,0.0,0.0,87,0.00,,,0.00,Wunderground v.1.15,2015-03-06 05:25:00,
2015-03-06 00:35:00,4.6,1.8,30.52,NW,325,0.0,0.0,88,0.00,,,0.00,Wunderground v.1.15,2015-03-06 05:35:00,
2015-03-06 00:45:00,4.5,1.7,30.52,NW,324,0.0,0.0,88,0.00,,,0.00,Wunderground v.1.15,2015-03-06 05:45:00,
2015-03-06 00:50:00,4.2,1.4,30.52,NW,325,0.0,0.0,88,0.00,,,0.00,Wunderground v.1.15,2015-03-06 05:50:00,
2015-03-06 01:00:00,3.7,0.9,30.52,NW,325,0.0,0.0,88,0.00,,,0.00,Wunderground v.1.15,2015-03-06 06:00:00,
2015-03-06 01:10:00,3.9,1.1,30.52,NW,325,0.0,0.0,88,0.00,,,0.00,Wunderground v.1.15,2015-03-06 06:10:00,
2015-03-06 01:20:00,3.2,0.4,30.52,NW,325,0.0,0.0,88,0.00,,,0.00,Wunderground v.1.15,2015-03-06 06:20:00,
2015-03-06 01:30:00,3.1,0.3,30.52,NW,325,0.0,0.0,88,0.00,,,0.00,Wunderground v.1.15,2015-03-06 06:30:00,
2015-03-06 01:35:00,3.0,0.3,30.52,NW,325,0.0,0.0,88,0.00,,,0.00,Wunderground v.1.15,2015-03-06 06:35:00,
2015-03-06 01:45:00,2.3,-0.7,30.52,NW,325,0.0,0.0,87,0.00,,,0.00,Wunderground v.1.15,2015-03-06 06:45:00,
2015-03-06 01:55:00,2.0,-1.0,30.52,NW,325,0.0,0.0,87,0.00,,,0.00,Wunderground v.1.15,2015-03-06 06:55:00,
2015-03-06 02:05:00,2.4,-0.1,30.53,WSW,238,0.0,0.0,89,0.00,,,0.00,Wunderground v.1.15,2015-03-06 07:05:00,
2015-03-06 02:15:00,2.3,-0.4,30.53,WSW,238,0.0,0.0,88,0.00,,,0.00,Wunderground v.1.15,2015-03-06 07:15:00,
2015-03-06 02:20:00,2.3,-0.4,30.53,WSW,238,0.0,0.0,88,0.00,,,0.00,Wunderground v.1.15,2015-03-06 07:20:00,
2015-03-06 02:30:00,2.3,-0.4,30.53,WSW,238,0.0,0.0,88,0.00,,,0.00,Wunderground v.1.15,2015-03-06 07:30:00,
2015-03-06 02:40:00,2.6,-0.1,30.53,WSW,238,0.0,0.0,88,0.00,,,0.00,Wunderground v.1.15,2015-03-06 07:40:00,
2015-03-06 02:50:00,2.3,-0.7,30.52,WSW,238,0.0,0.0,87,0.00,,,0.00,Wunderground v.1.15,2015-03-06 07:50:00,
2015-03-06 02:55:00,2.1,-0.9,30.52,WSW,238,0.0,0.0,87,0.00,,,0.00,Wunderground v.1.15,2015-03-06 07:55:00,
2015-03-06 03:05:00,1.7,-1.3,30.52,WSW,238,0.0,0.0,87,0.00,,,0.00,Wunderground v.1.15,2015-03-06 08:05:00,
2015-03-06 03:15:00,1.7,-1.3,30.53,WSW,238,0.0,0.0,87,0.00,,,0.00,Wunderground v.1.15,2015-03-06 08:15:00,
2015-03-06 03:25:00,1.5,-1.5,30.53,WSW,238,0.0,0.0,87,0.00,,,0.00,Wunderground v.1.15,2015-03-06 08:25:00,
2015-03-06 03:35:00,1.3,-1.7,30.52,WSW,238,0.0,0.0,87,0.00,,,0.00,Wunderground v.1.15,2015-03-06 08:35:00,
2015-03-06 03:40:00,1.3,-1.7,30.52,WSW,238,0.0,0.0,87,0.00,,,0.00,Wunderground v.1.15,2015-03-06 08:40:00,
2015-03-06 03:50:00,1.3,-1.7,30.52,WSW,238,0.0,0.0,87,0.00,,,0.00,Wunderground v.1.15,2015-03-06 08:50:00,
2015-03-06 04:00:00,1.0,-2.2,30.51,WSW,238,0.0,0.0,86,0.00,,,0.00,Wunderground v.1.15,2015-03-06 09:00:00,
2015-03-06 04:10:00,0.5,-2.7,30.51,WSW,238,0.0,0.0,86,0.00,,,0.00,Wunderground v.1.15,2015-03-06 09:10:00,
2015-03-06 04:20:00,0.0,-3.2,30.51,WSW,238,0.0,0.0,86,0.00,,,0.00,Wunderground v.1.15,2015-03-06 09:20:00,
2015-03-06 04:25:00,0.0,-2.9,30.51,WSW,238,0.0,0.0,87,0.00,,,0.00,Wunderground v.1.15,2015-03-06 09:25:00,
2015-03-06 04:35:00,0.2,-2.8,30.51,WSW,238,0.0,0.0,87,0.00,,,0.00,Wunderground v.1.15,2015-03-06 09:35:00,
2015-03-06 04:45:00,0.2,-2.8,30.51,WSW,238,0.0,0.0,87,0.00,,,0.00,Wunderground v.1.15,2015-03-06 09:45:00,
2015-03-06 04:55:00,-0.2,-3.4,30.51,WSW,238,0.0,0.0,86,0.00,,,0.00,Wunderground v.1.15,2015-03-06 09:55:00,
2015-03-06 05:05:00,-0.6,-3.8,30.52,WSW,238,0.0,0.0,86,0.00,,,0.00,Wunderground v.1.15,2015-03-06 10:05:00,
2015-03-06 05:10:00,-0.8,-4.0,30.52,WSW,238,0.0,0.0,86,0.00,,,0.00,Wunderground v.1.15,2015-03-06 10:10:00,
2015-03-06 05:20:00,-0.8,-3.7,30.52,WSW,238,0.0,0.0,87,0.00,,,0.00,Wunderground v.1.15,2015-03-06 10:20:00,
2015-03-06 05:30:00,-1.0,-3.9,30.52,WSW,238,0.0,0.0,87,0.00,,,0.00,Wunderground v.1.15,2015-03-06 10:30:00,
2015-03-06 05:40:00,-1.0,-3.9,30.53,WSW,238,0.0,0.0,87,0.00,,,0.00,Wunderground v.1.15,2015-03-06 10:40:00,
2015-03-06 05:45:00,-1.1,-4.0,30.53,WSW,238,0.0,0.0,87,0.00,,,0.00,Wunderground v.1.15,2015-03-06 10:45:00,
2015-03-06 05:55:00,-1.1,-4.0,30.53,SW,236,0.0,0.0,87,0.00,,,0.00,Wunderground v.1.15,2015-03-06 10:55:00,
2015-03-06 06:05:00,-1.1,-4.0,30.53,SW,236,0.0,0.0,87,0.00,,,0.00,Wunderground v.1.15,2015-03-06 11:05:00,
2015-03-06 06:15:00,-1.0,-3.9,30.53,WSW,237,0.0,0.0,87,0.00,,,0.00,Wunderground v.1.15,2015-03-06 11:15:00,
2015-03-06 06:25:00,-1.2,-4.1,30.52,SW,236,0.0,0.0,87,0.00,,,0.00,Wunderground v.1.15,2015-03-06 11:25:00,
2015-03-06 06:30:00,-1.5,-4.7,30.52,SW,236,0.0,0.0,86,0.00,,,0.00,Wunderground v.1.15,2015-03-06 11:30:00,
2015-03-06 06:40:00,-1.9,-5.1,30.53,SW,236,0.0,0.0,86,0.00,,,0.00,Wunderground v.1.15,2015-03-06 11:40:00,
2015-03-06 06:50:00,-2.3,-5.5,30.52,SW,236,0.0,0.0,86,0.00,,,0.00,Wunderground v.1.15,2015-03-06 11:50:00,
2015-03-06 06:55:00,-2.3,-5.5,30.52,SW,236,0.0,0.0,86,0.00,,,0.00,Wunderground v.1.15,2015-03-06 11:55:00,
2015-03-06 07:05:00,-2.1,-5.0,30.52,SW,236,0.0,0.0,87,0.00,,,0.00,Wunderground v.1.15,2015-03-06 12:05:00,
2015-03-06 07:15:00,-1.9,-4.8,30.52,SW,236,0.0,0.0,87,0.00,,,0.00,Wunderground v.1.15,2015-03-06 12:15:00,
2015-03-06 07:25:00,-1.6,-4.5,30.52,SW,236,0.0,0.0,87,0.00,,,0.00,Wunderground v.1.15,2015-03-06 12:25:00,
2015-03-06 07:35:00,-1.4,-4.3,30.53,SW,236,0.0,0.0,87,0.00,,,0.00,Wunderground v.1.15,2015-03-06 12:35:00,
2015-03-06 07:40:00,-1.4,-4.3,30.53,SW,236,0.0,0.0,87,0.00,,,0.00,Wunderground v.1.15,2015-03-06 12:40:00,
2015-03-06 07:50:00,-0.7,-3.4,30.54,SW,236,0.0,0.0,88,0.00,,,0.00,Wunderground v.1.15,2015-03-06 12:50:00,
2015-03-06 08:00:00,0.3,-2.4,30.53,SW,236,0.0,0.0,88,0.00,,,0.00,Wunderground v.1.15,2015-03-06 13:00:00,
2015-03-06 08:10:00,1.7,-0.8,30.54,SW,236,0.0,0.0,89,0.00,,,0.00,Wunderground v.1.15,2015-03-06 13:10:00,
2015-03-06 08:20:00,3.3,0.8,30.53,SW,236,0.0,0.0,89,0.00,,,0.00,Wunderground v.1.15,2015-03-06 13:20:00,
2015-03-06 08:25:00,4.1,1.6,30.53,SW,236,0.0,0.0,89,0.00,,,0.00,Wunderground v.1.15,2015-03-06 13:25:00,
2015-03-06 08:35:00,6.4,4.1,30.54,SW,236,0.0,0.0,90,0.00,,,0.00,Wunderground v.1.15,2015-03-06 13:35:00,
2015-03-06 08:45:00,8.2,5.6,30.53,SW,236,0.0,0.0,89,0.00,,,0.00,Wunderground v.1.15,2015-03-06 13:45:00,
2015-03-06 08:55:00,10.2,7.4,30.54,SW,236,0.0,0.0,88,0.00,,,0.00,Wunderground v.1.15,2015-03-06 13:55:00,
2015-03-06 09:05:00,12.9,10.3,30.53,SSE,160,0.0,1.0,89,0.00,,,0.00,Wunderground v.1.15,2015-03-06 14:05:00,
2015-03-06 09:10:00,14.6,11.2,30.54,South,174,0.0,0.0,86,0.00,,,0.00,Wunderground v.1.15,2015-03-06 14:10:00,
2015-03-06 09:20:00,16.7,11.6,30.55,SE,145,0.0,0.0,80,0.00,,,0.00,Wunderground v.1.15,2015-03-06 14:20:00,
2015-03-06 09:30:00,18.7,12.1,30.55,South,169,0.0,0.0,75,0.00,,,0.00,Wunderground v.1.15,2015-03-06 14:30:00,
2015-03-06 09:40:00,20.1,11.2,30.55,ESE,120,1.0,1.0,68,0.00,,,0.00,Wunderground v.1.15,2015-03-06 14:40:00,
2015-03-06 09:45:00,20.6,11.7,30.55,SSE,155,1.0,1.0,68,0.00,,,0.00,Wunderground v.1.15,2015-03-06 14:45:00,
2015-03-06 09:55:00,21.5,11.2,30.55,ENE,78,1.0,3.0,64,0.00,,,0.00,Wunderground v.1.15,2015-03-06 14:55:00,
2015-03-06 10:05:00,22.1,10.7,30.55,NW,319,1.0,2.0,61,0.00,,,0.00,Wunderground v.1.15,2015-03-06 15:05:00,
2015-03-06 10:15:00,22.4,11.0,30.54,ESE,103,1.0,2.0,61,0.00,,,0.00,Wunderground v.1.15,2015-03-06 15:15:00,
2015-03-06 10:20:00,22.9,10.7,30.54,SSE,149,1.0,3.0,59,0.00,,,0.00,Wunderground v.1.15,2015-03-06 15:20:00,
2015-03-06 10:30:00,22.7,9.7,30.54,SE,145,3.0,5.0,57,0.00,,,0.00,Wunderground v.1.15,2015-03-06 15:30:00,
2015-03-06 10:40:00,22.8,10.2,30.53,South,174,2.0,2.0,58,0.00,,,0.00,Wunderground v.1.15,2015-03-06 15:40:00,
2015-03-06 10:50:00,23.8,10.4,30.53,SE,125,2.0,2.0,56,0.00,,,0.00,Wunderground v.1.15,2015-03-06 15:50:00,
2015-03-06 11:00:00,23.9,9.6,30.53,NE,44,3.0,3.0,54,0.00,,,0.00,Wunderground v.1.15,2015-03-06 16:00:00,
2015-03-06 11:05:00,23.8,10.0,30.53,SSE,158,3.0,3.0,55,0.00,,,0.00,Wunderground v.1.15,2015-03-06 16:05:00,
2015-03-06 11:15:00,24.0,10.2,30.53,SSE,167,2.0,4.0,55,0.00,,,0.00,Wunderground v.1.15,2015-03-06 16:15:00,
2015-03-06 11:25:00,25.0,11.1,30.53,SE,139,1.0,2.0,55,0.00,,,0.00,Wunderground v.1.15,2015-03-06 16:25:00,
2015-03-06 11:35:00,25.4,11.0,30.53,SE,127,2.0,2.0,54,0.00,,,0.00,Wunderground v.1.15,2015-03-06 16:35:00,
2015-03-06 11:45:00,25.8,11.4,30.53,East,82,2.0,3.0,54,0.00,,,0.00,Wunderground v.1.15,2015-03-06 16:45:00,
2015-03-06 11:50:00,26.1,11.7,30.53,South,172,2.0,2.0,54,0.00,,,0.00,Wunderground v.1.15,2015-03-06 16:50:00,
2015-03-06 12:00:00,26.5,12.5,30.53,SE,127,2.0,2.0,55,0.00,,,0.00,Wunderground v.1.15,2015-03-06 17:00:00,
2015-03-06 12:10:00,26.3,11.5,30.51,SE,134,3.0,5.0,53,0.00,,,0.00,Wunderground v.1.15,2015-03-06 17:10:00,
2015-03-06 12:20:00,26.4,12.4,30.51,SE,141,3.0,3.0,55,0.00,,,0.00,Wunderground v.1.15,2015-03-06 17:20:00,
2015-03-06 12:25:00,26.5,12.1,30.51,WNW,284,3.0,3.0,54,0.00,,,0.00,Wunderground v.1.15,2015-03-06 17:25:00,
2015-03-06 12:35:00,27.4,13.3,30.51,WSW,238,2.0,5.0,55,0.00,,,0.00,Wunderground v.1.15,2015-03-06 17:35:00,
2015-03-06 12:45:00,27.6,13.5,30.50,SW,228,2.0,6.0,55,0.00,,,0.00,Wunderground v.1.15,2015-03-06 17:45:00,
2015-03-06 12:55:00,27.6,13.5,30.49,East,82,3.0,3.0,55,0.00,,,0.00,Wunderground v.1.15,2015-03-06 17:55:00,
2015-03-06 13:05:00,28.1,14.0,30.49,SSW,194,2.0,4.0,55,0.00,,,0.00,Wunderground v.1.15,2015-03-06 18:05:00,
2015-03-06 13:15:00,27.8,13.7,30.48,ESE,122,3.0,3.0,55,0.00,,,0.00,Wunderground v.1.15,2015-03-06 18:15:00,
2015-03-06 13:20:00,28.2,14.1,30.48,SE,129,2.0,3.0,55,0.00,,,0.00,Wunderground v.1.15,2015-03-06 18:20:00,
2015-03-06 13:25:00,28.3,14.2,30.48,WSW,256,2.0,3.0,55,0.00,,,0.00,Wunderground v.1.15,2015-03-06 18:25:00,
2015-03-06 13:35:00,28.0,14.3,30.46,SW,215,3.0,3.0,56,0.00,,,0.00,Wunderground v.1.15,2015-03-06 18:35:00,
2015-03-06 13:40:00,28.4,14.7,30.47,SE,135,2.0,2.0,56,0.00,,,0.00,Wunderground v.1.15,2015-03-06 18:40:00,
2015-03-06 13:45:00,28.5,14.4,30.46,ESE,113,2.0,7.0,55,0.00,,,0.00,Wunderground v.1.15,2015-03-06 18:45:00,
2015-03-06 13:55:00,28.7,15.0,30.45,SW,218,3.0,3.0,56,0.00,,,0.00,Wunderground v.1.15,2015-03-06 18:55:00,
2015-03-06 14:00:00,28.9,14.7,30.45,North,359,2.0,2.0,55,0.00,,,0.00,Wunderground v.1.15,2015-03-06 19:00:00,
2015-03-06 14:05:00,29.0,15.2,30.45,SSW,200,2.0,3.0,56,0.00,,,0.00,Wunderground v.1.15,2015-03-06 19:05:00,
2015-03-06 14:10:00,29.3,15.1,30.44,East,93,2.0,2.0,55,0.00,,,0.00,Wunderground v.1.15,2015-03-06 19:10:00,
2015-03-06 14:15:00,29.3,14.3,30.43,SE,138,2.0,3.0,53,0.00,,,0.00,Wunderground v.1.15,2015-03-06 19:15:00,
2015-03-06 14:20:00,29.1,13.6,30.43,SW,236,3.0,5.0,52,0.00,,,0.00,Wunderground v.1.15,2015-03-06 19:20:00,
2015-03-06 14:30:00,28.9,14.3,30.43,West,259,3.0,3.0,54,0.00,,,0.00,Wunderground v.1.15,2015-03-06 19:30:00,
2015-03-06 14:40:00,28.7,14.1,30.43,WSW,252,3.0,5.0,54,0.00,,,0.00,Wunderground v.1.15,2015-03-06 19:40:00,
2015-03-06 14:50:00,29.0,14.4,30.42,SSE,149,2.0,2.0,54,0.00,,,0.00,Wunderground v.1.15,2015-03-06 19:50:00,
2015-03-06 14:55:00,29.3,14.7,30.43,SE,131,2.0,2.0,54,0.00,,,0.00,Wunderground v.1.15,2015-03-06 19:55:00,
2015-03-06 15:05:00,29.2,15.0,30.42,SSE,150,2.0,3.0,55,0.00,,,0.00,Wunderground v.1.15,2015-03-06 20:05:00,
2015-03-06 15:15:00,29.3,14.7,30.42,ENE,65,2.0,2.0,54,0.00,,,0.00,Wunderground v.1.15,2015-03-06 20:15:00,
2015-03-06 15:25:00,29.8,15.2,30.41,SW,225,2.0,4.0,54,0.00,,,0.00,Wunderground v.1.15,2015-03-06 20:25:00,
2015-03-06 15:35:00,29.6,15.4,30.41,ESE,109,3.0,3.0,55,0.00,,,0.00,Wunderground v.1.15,2015-03-06 20:35:00,
2015-03-06 15:40:00,29.8,15.6,30.41,East,91,2.0,3.0,55,0.00,,,0.00,Wunderground v.1.15,2015-03-06 20:40:00,
2015-03-06 15:50:00,29.9,15.7,30.40,ESE,119,3.0,3.0,55,0.00,,,0.00,Wunderground v.1.15,2015-03-06 20:50:00,
2015-03-06 16:00:00,30.3,15.6,30.40,South,191,3.0,3.0,54,0.00,,,0.00,Wunderground v.1.15,2015-03-06 21:00:00,
2015-03-06 16:10:00,30.2,14.7,30.40,East,84,2.0,2.0,52,0.00,,,0.00,Wunderground v.1.15,2015-03-06 21:10:00,
2015-03-06 16:20:00,30.4,13.5,30.40,ESE,123,3.0,3.0,49,0.00,,,0.00,Wunderground v.1.15,2015-03-06 21:20:00,
2015-03-06 16:30:00,30.4,14.0,30.40,WSW,242,3.0,4.0,50,0.00,,,0.00,Wunderground v.1.15,2015-03-06 21:30:00,
2015-03-06 16:40:00,30.7,14.2,30.39,South,170,2.0,2.0,50,0.00,,,0.00,Wunderground v.1.15,2015-03-06 21:40:00,
2015-03-06 16:50:00,30.5,14.5,30.38,SW,219,2.0,4.0,51,0.00,,,0.00,Wunderground v.1.15,2015-03-06 21:50:00,
2015-03-06 17:00:00,30.3,14.3,30.38,SW,226,2.0,4.0,51,0.00,,,0.00,Wunderground v.1.15,2015-03-06 22:00:00,
2015-03-06 17:05:00,30.1,14.1,30.37,SW,219,2.0,4.0,51,0.00,,,0.00,Wunderground v.1.15,2015-03-06 22:05:00,
2015-03-06 17:15:00,29.8,13.9,30.37,ESE,107,2.0,2.0,51,0.00,,,0.00,Wunderground v.1.15,2015-03-06 22:15:00,
2015-03-06 17:25:00,29.3,13.8,30.37,ESE,102,2.0,6.0,52,0.00,,,0.00,Wunderground v.1.15,2015-03-06 22:25:00,
2015-03-06 17:35:00,29.1,13.6,30.37,East,79,1.0,2.0,52,0.00,,,0.00,Wunderground v.1.15,2015-03-06 22:35:00,
2015-03-06 17:45:00,28.5,12.6,30.37,ENE,78,2.0,2.0,51,0.00,,,0.00,Wunderground v.1.15,2015-03-06 22:45:00,
2015-03-06 17:55:00,28.0,13.1,30.36,SE,131,1.0,2.0,53,0.00,,,0.00,Wunderground v.1.15,2015-03-06 22:55:00,
2015-03-06 18:00:00,27.9,13.4,30.36,SSW,195,1.0,3.0,54,0.00,,,0.00,Wunderground v.1.15,2015-03-06 23:00:00,
2015-03-06 18:10:00,27.5,13.4,30.36,East,100,2.0,2.0,55,0.00,,,0.00,Wunderground v.1.15,2015-03-06 23:10:00,
2015-03-06 18:20:00,27.0,13.0,30.36,SW,230,2.0,2.0,55,0.00,,,0.00,Wunderground v.1.15,2015-03-06 23:20:00,
2015-03-06 18:30:00,26.6,13.0,30.37,SSE,153,1.0,3.0,56,0.00,,,0.00,Wunderground v.1.15,2015-03-06 23:30:00,
2015-03-06 18:35:00,26.4,13.2,30.36,East,84,1.0,3.0,57,0.00,,,0.00,Wunderground v.1.15,2015-03-06 23:35:00,
2015-03-06 18:45:00,25.9,13.1,30.36,SW,217,1.0,2.0,58,0.00,,,0.00,Wunderground v.1.15,2015-03-06 23:45:00,
2015-03-06 18:55:00,25.5,13.1,30.36,SE,129,0.0,1.0,59,0.00,,,0.00,Wunderground v.1.15,2015-03-06 23:55:00,
2015-03-06 19:05:00,25.1,13.5,30.36,SSW,203,0.0,0.0,61,0.00,,,0.00,Wunderground v.1.15,2015-03-07 00:05:00,